Hendersonville, TN

9:43 PM CST on January 22, 2017 (GMT -0600)
Braxton Lane East @37075weather | | Change Station

Elev 610 ft 36.32 °N, 86.64 °W | Updated 21 seconds ago

Overcast
Overcast
56.8 °F
Feels Like 56.8 °F
N
2.2
Wind Variable Wind from SE
Gusts 4.5 mph

Today
High -- | Low -- °F
--% Chance of Precip.
Yesterday
High -- | Low -- °F
Precip. -- in
Pressure 29.28 in
Visibility 10.0 miles
Clouds Overcast 1800 ft
Dew Point 50 °F
Humidity 78%
Rainfall 0.09 in
Snow Depth Not available.
6:54 AM 5:02 PM
Waning Crescent, 21% visible
METAR KBNA 230253Z 01015G21KT 10SM OVC018 14/11 A2929 RMK AO2 SLP914 60001 T01440111 55001
Pressure 29.28 in
Visibility 10.0 miles
Clouds Overcast 1800 ft
Dew Point 50 °F
Humidity 78%
Rainfall 0.09 in
Snow Depth Not available.
6:54 AM 5:02 PM
Waning Crescent, 21% visible
METAR KBNA 230253Z 01015G21KT 10SM OVC018 14/11 A2929 RMK AO2 SLP914 60001 T01440111 55001

Get Your Daily Forecast Email!

Thanks for signing up!

Be on the lookout for a verification email in your inbox.

You'll start receiving the daily forecast at 8 AM.

×

10-Day Weather Forecast

Almanac

Astronomy

Jan. 22, 2017 Rise Set
Actual Time
Civil Twilight
Nautical Twilight
Astronomical Twilight
Moon
Length of Visible Light
Length of Day
Tomorrow will be .
, % of the Moon is Illuminated

Today's Extremes

State Highs State Lows

Community

WunderPhotos

Upload Photos

1,962,540 photos uploaded!

WunderBlog® & News

Nearby

Air Quality

  Air Quality AQ Index Pollutant
Not available.

Snow Depth

Station Depth Elevation

Earthquake Activity

City Distance Mag. Time & Date
Minimum magnitude displayed is 2.5.

Coastal Water Temperatures

Place Temperature

Stations

Nearby Weather Stations

Station Location Temp. Windchill Dew Point Humidity Wind Precip. Elev Updated Type
                   

Watches & Warnings

There are currently no watches in effect.